Colfax, WA

5:27 PM PDT on September 01, 2014 (GMT -0700)
APRSWXNET Pullman WA US | Change Station
CLOSE
Current Station
Personal Weather Station
Location: Pullman, WA
Elevation: 2583 ft
Nearby Weather Stations

Elev 2583 ft 46.75 °N, 117.18 °W | Updated 51 minutes ago

Clear
Clear
73 °F
Feels Like 77 °F
N
9
Wind Variable Wind from West
Gusts 16.0 mph

Today
High -- | Low -- °F
--% Chance of Precip.
Yesterday
High -- | Low -- °F
Precip. -- in
6:09 AM 7:28 PM
Waxing Crescent, 45% visible
Pressure 30.00 in
Visibility 10.0 miles
Clouds Clear
Heat Index 77 °F
Dew Point 44 °F
Humidity 36%
Rainfall 0.00 in
Snow Depth Not available.
UV 2 out of 12
Pollen 6.70 out of 12
Air Quality Not available.
Flu Activity Not available.
METAR KPUW 012353Z AUTO VRB05G16KT 10SM CLR 22/04 A3002 RMK AO2 SLP159 T02170044 10222 20178 58013

More Conditions Fewer Conditions

Pressure 30.00 in
Visibility 10.0 miles
Clouds Clear
Heat Index 77 °F
Dew Point 44 °F
Humidity 36%
Rainfall 0.00 in
Snow Depth Not available.
UV 2 out of 12
Pollen 6.70 out of 12
Air Quality Not available.
Flu Activity Not available.
METAR KPUW 012353Z AUTO VRB05G16KT 10SM CLR 22/04 A3002 RMK AO2 SLP159 T02170044 10222 20178 58013

More Conditions Fewer Conditions

10-Day Weather Forecast

Almanac

Astronomy

Sep. 01, 2014 Rise Set
Actual Time 6:09 AM PDT 7:28 PM PDT
Civil Twilight 5:37 AM PDT 8:00 PM PDT
Nautical Twilight 4:59 AM PDT 8:37 PM PDT
Astronomical Twilight 4:18 AM PDT 9:18 PM PDT
Moon 1:25 PM PDT (9/1) 11:07 PM PDT (9/1)
Length of Visible Light 14h 22m
Length of Day
13h 19m
Tomorrow will be 3m 14s shorter.
Waxing Crescent, 45% of the Moon is Illuminated
Today
Waxing Crescent
Sep 2
First Quarter
Sep 8
Full
Sep 15
Last Quarter
Sep 24
New

Today's Extremes

State Highs State Lows

Community

WunderPhotos

Upload Photos

1,749,461 photos uploaded!

Nearby

Snow Depth

Station Depth Elevation
Sourdough Gulch 0 in 4000 ft
Quartz Peak 0 in 4700 ft
Moses Mountain 1 in 5300 ft
Trough 0 in 5300 ft
Sentinel Butte 0 in 4920 ft

Earthquake Activity

City Distance Mag. Time & Date
No recent earthquake activity has been reported nearby.
Minimum magnitude displayed is 2.5.

Coastal Water Temperatures

Place Temperature
No Stations Reporting

Nearby Weather Stations